sensor_id;sensor_type;location;lat;lon;timestamp;pressure;altitude;pressure_sealevel;temperature;humidity
75136;BME280;63707;52.212;9.540;2024-01-15T00:01:21;98260.31;;;-0.21;100.00
75136;BME280;63707;52.212;9.540;2024-01-15T00:03:46;98256.78;;;-0.21;100.00
75136;BME280;63707;52.212;9.540;2024-01-15T00:06:11;98259.28;;;-0.20;100.00
75136;BME280;63707;52.212;9.540;2024-01-15T00:08:37;98246.38;;;-0.16;100.00
75136;BME280;63707;52.212;9.540;2024-01-15T00:11:02;98253.19;;;-0.14;100.00
75136;BME280;63707;52.212;9.540;2024-01-15T00:13:28;98243.13;;;-0.12;100.00
75136;BME280;63707;52.212;9.540;2024-01-15T00:15:55;98239.16;;;-0.16;100.00
75136;BME280;63707;52.212;9.540;2024-01-15T00:18:21;98234.38;;;-0.20;100.00
75136;BME280;63707;52.212;9.540;2024-01-15T00:20:46;98238.06;;;-0.21;100.00
75136;BME280;63707;52.212;9.540;2024-01-15T00:23:12;98218.97;;;-0.18;100.00
75136;BME280;63707;52.212;9.540;2024-01-15T00:25:37;98215.25;;;-0.17;100.00
75136;BME280;63707;52.212;9.540;2024-01-15T00:28:03;98220.81;;;-0.19;100.00
75136;BME280;63707;52.212;9.540;2024-01-15T00:30:29;98225.78;;;-0.16;100.00
75136;BME280;63707;52.212;9.540;2024-01-15T00:32:55;98223.84;;;-0.22;100.00
75136;BME280;63707;52.212;9.540;2024-01-15T00:35:21;98217.19;;;-0.26;100.00
75136;BME280;63707;52.212;9.540;2024-01-15T00:37:46;98230.47;;;-0.33;100.00
75136;BME280;63707;52.212;9.540;2024-01-15T00:40:13;98221.25;;;-0.30;100.00
75136;BME280;63707;52.212;9.540;2024-01-15T00:42:38;98221.91;;;-0.28;100.00
75136;BME280;63707;52.212;9.540;2024-01-15T00:45:04;98218.03;;;-0.25;100.00
75136;BME280;63707;52.212;9.540;2024-01-15T00:47:31;98219.97;;;-0.19;100.00
75136;BME280;63707;52.212;9.540;2024-01-15T00:49:58;98206.59;;;-0.19;100.00
75136;BME280;63707;52.212;9.540;2024-01-15T00:52:24;98195.06;;;-0.20;100.00
75136;BME280;63707;52.212;9.540;2024-01-15T00:54:49;98205.66;;;-0.12;100.00
75136;BME280;63707;52.212;9.540;2024-01-15T00:57:15;98203.38;;;-0.15;100.00
75136;BME280;63707;52.212;9.540;2024-01-15T00:59:40;98191.28;;;-0.11;100.00
75136;BME280;63707;52.212;9.540;2024-01-15T01:02:06;98185.53;;;-0.08;100.00
75136;BME280;63707;52.212;9.540;2024-01-15T01:04:31;98195.59;;;-0.10;100.00
75136;BME280;63707;52.212;9.540;2024-01-15T01:06:58;98210.66;;;-0.09;100.00
75136;BME280;63707;52.212;9.540;2024-01-15T01:09:24;98189.88;;;-0.07;100.00
75136;BME280;63707;52.212;9.540;2024-01-15T01:11:49;98187.03;;;-0.05;100.00
75136;BME280;63707;52.212;9.540;2024-01-15T01:14:15;98183.06;;;-0.09;100.00
75136;BME280;63707;52.212;9.540;2024-01-15T01:16:40;98179.72;;;-0.11;100.00
75136;BME280;63707;52.212;9.540;2024-01-15T01:19:06;98181.03;;;-0.07;100.00
75136;BME280;63707;52.212;9.540;2024-01-15T01:21:32;98176.69;;;-0.08;100.00
75136;BME280;63707;52.212;9.540;2024-01-15T01:23:59;98191.91;;;-0.09;100.00
75136;BME280;63707;52.212;9.540;2024-01-15T01:26:24;98177.69;;;-0.09;100.00
75136;BME280;63707;52.212;9.540;2024-01-15T01:28:50;98182.50;;;-0.05;100.00
75136;BME280;63707;52.212;9.540;2024-01-15T01:31:15;98169.28;;;-0.06;100.00
75136;BME280;63707;52.212;9.540;2024-01-15T01:33:42;98179.81;;;-0.05;100.00
75136;BME280;63707;52.212;9.540;2024-01-15T01:36:08;98180.13;;;0.01;100.00
75136;BME280;63707;52.212;9.540;2024-01-15T01:38:33;98164.22;;;-0.01;100.00
75136;BME280;63707;52.212;9.540;2024-01-15T01:41:00;98179.28;;;0.00;100.00
75136;BME280;63707;52.212;9.540;2024-01-15T01:43:26;98173.63;;;-0.05;100.00
75136;BME280;63707;52.212;9.540;2024-01-15T01:45:52;98181.66;;;-0.05;100.00
75136;BME280;63707;52.212;9.540;2024-01-15T01:48:17;98176.31;;;-0.05;100.00
75136;BME280;63707;52.212;9.540;2024-01-15T01:50:44;98157.19;;;-0.02;100.00
75136;BME280;63707;52.212;9.540;2024-01-15T01:53:10;98164.59;;;-0.04;100.00
75136;BME280;63707;52.212;9.540;2024-01-15T01:55:36;98159.53;;;0.01;100.00
75136;BME280;63707;52.212;9.540;2024-01-15T01:58:05;98163.88;;;0.02;100.00
75136;BME280;63707;52.212;9.540;2024-01-15T02:00:30;98155.53;;;-0.03;100.00
75136;BME280;63707;52.212;9.540;2024-01-15T02:02:57;98146.16;;;0.01;100.00
75136;BME280;63707;52.212;9.540;2024-01-15T02:05:22;98157.00;;;-0.01;100.00
75136;BME280;63707;52.212;9.540;2024-01-15T02:07:48;98159.63;;;0.08;100.00
75136;BME280;63707;52.212;9.540;2024-01-15T02:10:13;98146.03;;;0.09;100.00
75136;BME280;63707;52.212;9.540;2024-01-15T02:12:39;98146.41;;;0.06;100.00
75136;BME280;63707;52.212;9.540;2024-01-15T02:15:06;98143.63;;;0.14;100.00
75136;BME280;63707;52.212;9.540;2024-01-15T02:17:32;98140.69;;;0.09;100.00
75136;BME280;63707;52.212;9.540;2024-01-15T02:19:58;98132.00;;;0.07;100.00
75136;BME280;63707;52.212;9.540;2024-01-15T02:22:23;98141.25;;;0.05;100.00
75136;BME280;63707;52.212;9.540;2024-01-15T02:24:50;98149.56;;;0.10;100.00
75136;BME280;63707;52.212;9.540;2024-01-15T02:27:16;98165.25;;;0.13;100.00
75136;BME280;63707;52.212;9.540;2024-01-15T02:29:42;98153.31;;;0.15;100.00
75136;BME280;63707;52.212;9.540;2024-01-15T02:32:08;98151.59;;;0.08;100.00
75136;BME280;63707;52.212;9.540;2024-01-15T02:34:34;98145.47;;;0.14;100.00
75136;BME280;63707;52.212;9.540;2024-01-15T02:37:00;98151.03;;;0.12;100.00
75136;BME280;63707;52.212;9.540;2024-01-15T02:39:25;98146.88;;;0.10;100.00
75136;BME280;63707;52.212;9.540;2024-01-15T02:41:52;98157.59;;;0.10;100.00
75136;BME280;63707;52.212;9.540;2024-01-15T02:44:17;98149.19;;;0.13;100.00
75136;BME280;63707;52.212;9.540;2024-01-15T02:46:43;98140.50;;;0.11;100.00
75136;BME280;63707;52.212;9.540;2024-01-15T02:49:08;98151.22;;;0.11;100.00
75136;BME280;63707;52.212;9.540;2024-01-15T02:51:34;98145.84;;;0.11;100.00
75136;BME280;63707;52.212;9.540;2024-01-15T02:53:59;98143.63;;;0.14;100.00
75136;BME280;63707;52.212;9.540;2024-01-15T02:56:25;98135.16;;;0.11;100.00
75136;BME280;63707;52.212;9.540;2024-01-15T02:58:52;98137.81;;;0.11;100.00
75136;BME280;63707;52.212;9.540;2024-01-15T03:01:18;98152.31;;;0.16;100.00
75136;BME280;63707;52.212;9.540;2024-01-15T03:03:44;98156.84;;;0.16;100.00
75136;BME280;63707;52.212;9.540;2024-01-15T03:06:10;98154.16;;;0.16;100.00
75136;BME280;63707;52.212;9.540;2024-01-15T03:08:35;98145.19;;;0.23;100.00
75136;BME280;63707;52.212;9.540;2024-01-15T03:11:01;98161.81;;;0.19;100.00
75136;BME280;63707;52.212;9.540;2024-01-15T03:13:26;98142.44;;;0.17;100.00
75136;BME280;63707;52.212;9.540;2024-01-15T03:15:53;98156.28;;;0.20;100.00
75136;BME280;63707;52.212;9.540;2024-01-15T03:18:18;98156.09;;;0.22;100.00
75136;BME280;63707;52.212;9.540;2024-01-15T03:20:44;98154.81;;;0.18;100.00
75136;BME280;63707;52.212;9.540;2024-01-15T03:23:09;98143.44;;;0.16;100.00
75136;BME280;63707;52.212;9.540;2024-01-15T03:25:35;98151.47;;;0.16;100.00
75136;BME280;63707;52.212;9.540;2024-01-15T03:28:00;98142.44;;;0.17;100.00
75136;BME280;63707;52.212;9.540;2024-01-15T03:30:26;98142.88;;;0.20;100.00
75136;BME280;63707;52.212;9.540;2024-01-15T03:32:52;98145.28;;;0.15;100.00
75136;BME280;63707;52.212;9.540;2024-01-15T03:35:18;98143.72;;;0.21;100.00
75136;BME280;63707;52.212;9.540;2024-01-15T03:37:44;98146.38;;;0.21;100.00
75136;BME280;63707;52.212;9.540;2024-01-15T03:40:10;98130.06;;;0.16;100.00
75136;BME280;63707;52.212;9.540;2024-01-15T03:42:36;98133.38;;;0.18;100.00
75136;BME280;63707;52.212;9.540;2024-01-15T03:45:01;98133.84;;;0.21;100.00
75136;BME280;63707;52.212;9.540;2024-01-15T03:47:28;98146.38;;;0.21;100.00
75136;BME280;63707;52.212;9.540;2024-01-15T03:49:54;98138.81;;;0.24;100.00
75136;BME280;63707;52.212;9.540;2024-01-15T03:52:20;98146.66;;;0.26;100.00
75136;BME280;63707;52.212;9.540;2024-01-15T03:54:45;98147.88;;;0.23;100.00
75136;BME280;63707;52.212;9.540;2024-01-15T03:57:11;98144.34;;;0.23;100.00
75136;BME280;63707;52.212;9.540;2024-01-15T03:59:36;98149.16;;;0.27;100.00
75136;BME280;63707;52.212;9.540;2024-01-15T04:02:02;98156.16;;;0.28;100.00
75136;BME280;63707;52.212;9.540;2024-01-15T04:04:27;98155.53;;;0.26;100.00
75136;BME280;63707;52.212;9.540;2024-01-15T04:06:54;98149.72;;;0.23;100.00
75136;BME280;63707;52.212;9.540;2024-01-15T04:09:19;98153.28;;;0.30;100.00
75136;BME280;63707;52.212;9.540;2024-01-15T04:11:45;98159.03;;;0.27;100.00
75136;BME280;63707;52.212;9.540;2024-01-15T04:14:10;98151.38;;;0.24;100.00
75136;BME280;63707;52.212;9.540;2024-01-15T04:16:37;98159.03;;;0.27;100.00
75136;BME280;63707;52.212;9.540;2024-01-15T04:19:02;98173.44;;;0.26;100.00
75136;BME280;63707;52.212;9.540;2024-01-15T04:21:28;98169.28;;;0.23;100.00
75136;BME280;63707;52.212;9.540;2024-01-15T04:23:55;98161.25;;;0.23;100.00
75136;BME280;63707;52.212;9.540;2024-01-15T04:26:20;98166.69;;;0.30;100.00
75136;BME280;63707;52.212;9.540;2024-01-15T04:28:45;98158.19;;;0.26;100.00
75136;BME280;63707;52.212;9.540;2024-01-15T04:31:21;98154.25;;;0.22;100.00
75136;BME280;63707;52.212;9.540;2024-01-15T04:33:47;98160.22;;;0.24;100.00
75136;BME280;63707;52.212;9.540;2024-01-15T04:36:12;98160.88;;;0.26;100.00
75136;BME280;63707;52.212;9.540;2024-01-15T04:38:38;98149.72;;;0.23;100.00
75136;BME280;63707;52.212;9.540;2024-01-15T04:41:05;98151.19;;;0.25;100.00
75136;BME280;63707;52.212;9.540;2024-01-15T04:43:31;98147.88;;;0.23;100.00
75136;BME280;63707;52.212;9.540;2024-01-15T04:45:57;98141.69;;;0.23;100.00
75136;BME280;63707;52.212;9.540;2024-01-15T04:48:22;98158.75;;;0.22;100.00
75136;BME280;63707;52.212;9.540;2024-01-15T04:50:48;98160.06;;;0.26;100.00
75136;BME280;63707;52.212;9.540;2024-01-15T04:53:13;98153.50;;;0.14;100.00
75136;BME280;63707;52.212;9.540;2024-01-15T04:55:39;98146.03;;;0.09;100.00
75136;BME280;63707;52.212;9.540;2024-01-15T04:58:06;98143.75;;;0.06;100.00
75136;BME280;63707;52.212;9.540;2024-01-15T05:00:31;98136.34;;;0.08;100.00
75136;BME280;63707;52.212;9.540;2024-01-15T05:02:57;98124.81;;;0.08;100.00
75136;BME280;63707;52.212;9.540;2024-01-15T05:05:22;98127.13;;;0.89;100.00
75136;BME280;63707;52.212;9.540;2024-01-15T05:07:48;98119.81;;;0.98;100.00
75136;BME280;63707;52.212;9.540;2024-01-15T05:10:13;98130.47;;;0.34;100.00
75136;BME280;63707;52.212;9.540;2024-01-15T05:12:39;98131.50;;;0.33;100.00
75136;BME280;63707;52.212;9.540;2024-01-15T05:15:06;98143.16;;;0.25;100.00
75136;BME280;63707;52.212;9.540;2024-01-15T05:17:32;98132.94;;;0.14;100.00
75136;BME280;63707;52.212;9.540;2024-01-15T05:19:57;98134.84;;;0.20;100.00
75136;BME280;63707;52.212;9.540;2024-01-15T05:22:22;98130.44;;;0.13;100.00
75136;BME280;63707;52.212;9.540;2024-01-15T05:24:50;98124.69;;;0.16;100.00
75136;BME280;63707;52.212;9.540;2024-01-15T05:27:15;98135.22;;;0.17;100.00
75136;BME280;63707;52.212;9.540;2024-01-15T05:29:40;98130.44;;;0.13;100.00
75136;BME280;63707;52.212;9.540;2024-01-15T05:32:08;98144.84;;;0.12;100.00
75136;BME280;63707;52.212;9.540;2024-01-15T05:34:34;98140.50;;;0.11;100.00
75136;BME280;63707;52.212;9.540;2024-01-15T05:37:00;98129.59;;;0.12;100.00
75136;BME280;63707;52.212;9.540;2024-01-15T05:39:25;98133.94;;;0.13;100.00
75136;BME280;63707;52.212;9.540;2024-01-15T05:41:51;98134.13;;;0.12;100.00
75136;BME280;63707;52.212;9.540;2024-01-15T05:44:17;98139.09;;;0.15;100.00
75136;BME280;63707;52.212;9.540;2024-01-15T05:46:43;98125.06;;;0.13;100.00
75136;BME280;63707;52.212;9.540;2024-01-15T05:49:09;98125.28;;;0.11;100.00
75136;BME280;63707;52.212;9.540;2024-01-15T05:51:35;98122.31;;;0.06;100.00
75136;BME280;63707;52.212;9.540;2024-01-15T05:54:01;98126.19;;;-0.11;100.00
75136;BME280;63707;52.212;9.540;2024-01-15T05:56:26;98118.84;;;-0.24;100.00
75136;BME280;63707;52.212;9.540;2024-01-15T05:58:52;98133.22;;;-0.25;100.00
75136;BME280;63707;52.212;9.540;2024-01-15T06:01:17;98129.16;;;-0.21;100.00
75136;BME280;63707;52.212;9.540;2024-01-15T06:03:43;98119.66;;;-0.23;100.00
75136;BME280;63707;52.212;9.540;2024-01-15T06:06:10;98128.88;;;-0.26;100.00
75136;BME280;63707;52.212;9.540;2024-01-15T06:08:35;98134.44;;;-0.27;100.00
75136;BME280;63707;52.212;9.540;2024-01-15T06:11:01;98131.38;;;-0.24;100.00
75136;BME280;63707;52.212;9.540;2024-01-15T06:13:26;98121.97;;;-0.20;100.00
75136;BME280;63707;52.212;9.540;2024-01-15T06:15:52;98139.13;;;-0.15;100.00
75136;BME280;63707;52.212;9.540;2024-01-15T06:18:17;98129.69;;;-0.11;100.00
75136;BME280;63707;52.212;9.540;2024-01-15T06:20:43;98132.19;;;-0.09;100.00
75136;BME280;63707;52.212;9.540;2024-01-15T06:23:09;98131.81;;;-0.06;100.00
75136;BME280;63707;52.212;9.540;2024-01-15T06:25:35;98133.47;;;-0.05;100.00
75136;BME280;63707;52.212;9.540;2024-01-15T06:28:00;98136.47;;;0.00;100.00
75136;BME280;63707;52.212;9.540;2024-01-15T06:30:26;98136.47;;;0.00;100.00
75136;BME280;63707;52.212;9.540;2024-01-15T06:32:51;98134.63;;;0.01;100.00
75136;BME280;63707;52.212;9.540;2024-01-15T06:35:17;98141.63;;;0.02;100.00
75136;BME280;63707;52.212;9.540;2024-01-15T06:37:42;98131.56;;;0.04;100.00
75136;BME280;63707;52.212;9.540;2024-01-15T06:40:10;98134.44;;;0.02;100.00
75136;BME280;63707;52.212;9.540;2024-01-15T06:42:35;98135.25;;;0.03;100.00
75136;BME280;63707;52.212;9.540;2024-01-15T06:45:01;98139.59;;;0.04;100.00
75136;BME280;63707;52.212;9.540;2024-01-15T06:47:26;98135.91;;;0.05;100.00
75136;BME280;63707;52.212;9.540;2024-01-15T06:49:51;98145.59;;;0.06;100.00
75136;BME280;63707;52.212;9.540;2024-01-15T06:52:17;98133.41;;;0.03;100.00
75136;BME280;63707;52.212;9.540;2024-01-15T06:54:43;98130.72;;;0.03;100.00
75136;BME280;63707;52.212;9.540;2024-01-15T06:57:09;98132.41;;;0.04;100.00
75136;BME280;63707;52.212;9.540;2024-01-15T06:59:35;98133.41;;;0.03;100.00
75136;BME280;63707;52.212;9.540;2024-01-15T07:02:00;98136.47;;;0.00;100.00
75136;BME280;63707;52.212;9.540;2024-01-15T07:04:26;98140.50;;;-0.04;100.00
75136;BME280;63707;52.212;9.540;2024-01-15T07:06:51;98136.25;;;-0.13;100.00
75136;BME280;63707;52.212;9.540;2024-01-15T07:09:17;98137.72;;;-0.11;100.00
75136;BME280;63707;52.212;9.540;2024-01-15T07:11:44;98139.03;;;-0.07;100.00
75136;BME280;63707;52.212;9.540;2024-01-15T07:14:12;98131.38;;;-0.10;100.00
75136;BME280;63707;52.212;9.540;2024-01-15T07:16:37;98134.88;;;-0.09;100.00
75136;BME280;63707;52.212;9.540;2024-01-15T07:19:03;98130.63;;;-0.04;100.00
75136;BME280;63707;52.212;9.540;2024-01-15T07:21:28;98121.69;;;-0.11;100.00
75136;BME280;63707;52.212;9.540;2024-01-15T07:23:55;98133.66;;;-0.07;100.00
75136;BME280;63707;52.212;9.540;2024-01-15T07:26:20;98130.53;;;-0.10;100.00
75136;BME280;63707;52.212;9.540;2024-01-15T07:28:47;98126.84;;;-0.09;100.00
75136;BME280;63707;52.212;9.540;2024-01-15T07:31:15;98137.19;;;-0.06;100.00
75136;BME280;63707;52.212;9.540;2024-01-15T07:33:40;98138.00;;;-0.06;100.00
75136;BME280;63707;52.212;9.540;2024-01-15T07:36:06;98131.44;;;-0.03;100.00
75136;BME280;63707;52.212;9.540;2024-01-15T07:38:32;98129.97;;;-0.06;100.00
75136;BME280;63707;52.212;9.540;2024-01-15T07:40:57;98124.16;;;-0.09;100.00
75136;BME280;63707;52.212;9.540;2024-01-15T07:43:23;98135.50;;;-0.07;100.00
75136;BME280;63707;52.212;9.540;2024-01-15T07:45:48;98134.50;;;-0.06;100.00
75136;BME280;63707;52.212;9.540;2024-01-15T07:48:15;98145.22;;;-0.06;100.00
75136;BME280;63707;52.212;9.540;2024-01-15T07:50:40;98142.53;;;-0.06;100.00
75136;BME280;63707;52.212;9.540;2024-01-15T07:53:06;98143.47;;;0.01;100.00
75136;BME280;63707;52.212;9.540;2024-01-15T07:55:31;98148.34;;;-0.03;100.00
75136;BME280;63707;52.212;9.540;2024-01-15T07:57:57;98148.81;;;0.01;100.00
75136;BME280;63707;52.212;9.540;2024-01-15T08:00:24;98136.28;;;0.02;100.00
75136;BME280;63707;52.212;9.540;2024-01-15T08:02:49;98140.44;;;0.04;100.00
75136;BME280;63707;52.212;9.540;2024-01-15T08:05:17;98144.50;;;0.00;100.00
75136;BME280;63707;52.212;9.540;2024-01-15T08:07:43;98144.13;;;0.03;100.00
75136;BME280;63707;52.212;9.540;2024-01-15T08:10:09;98140.31;;;0.12;100.00
75136;BME280;63707;52.212;9.540;2024-01-15T08:12:34;98139.47;;;0.12;100.00
75136;BME280;63707;52.212;9.540;2024-01-15T08:15:00;98147.59;;;0.18;100.00
75136;BME280;63707;52.212;9.540;2024-01-15T08:17:25;98154.06;;;0.24;100.00
75136;BME280;63707;52.212;9.540;2024-01-15T08:19:54;98144.72;;;0.20;100.00
75136;BME280;63707;52.212;9.540;2024-01-15T08:22:21;98146.84;;;0.24;100.00
75136;BME280;63707;52.212;9.540;2024-01-15T08:24:46;98156.09;;;0.22;100.00
75136;BME280;63707;52.212;9.540;2024-01-15T08:27:11;98155.25;;;0.21;100.00
75136;BME280;63707;52.212;9.540;2024-01-15T08:29:37;98147.03;;;0.23;100.00
75136;BME280;63707;52.212;9.540;2024-01-15T08:32:03;98154.44;;;0.21;100.00
75136;BME280;63707;52.212;9.540;2024-01-15T08:34:28;98161.44;;;0.22;100.00
75136;BME280;63707;52.212;9.540;2024-01-15T08:36:54;98159.06;;;0.12;100.00
75136;BME280;63707;52.212;9.540;2024-01-15T08:39:21;98166.63;;;0.09;100.00
75136;BME280;63707;52.212;9.540;2024-01-15T08:41:46;98159.88;;;0.13;100.00
75136;BME280;63707;52.212;9.540;2024-01-15T08:44:12;98156.09;;;0.22;100.00
75136;BME280;63707;52.212;9.540;2024-01-15T08:46:37;98159.59;;;0.22;100.00
75136;BME280;63707;52.212;9.540;2024-01-15T08:49:03;98154.69;;;0.26;100.00
75136;BME280;63707;52.212;9.540;2024-01-15T08:51:28;98152.09;;;0.32;100.00
75136;BME280;63707;52.212;9.540;2024-01-15T08:53:54;98149.41;;;0.32;100.00
75136;BME280;63707;52.212;9.540;2024-01-15T08:56:21;98155.03;;;0.38;100.00
75136;BME280;63707;52.212;9.540;2024-01-15T08:58:47;98153.81;;;0.40;100.00
75136;BME280;63707;52.212;9.540;2024-01-15T09:01:12;98147.19;;;0.36;100.00
75136;BME280;63707;52.212;9.540;2024-01-15T09:03:39;98155.28;;;0.43;100.00
75136;BME280;63707;52.212;9.540;2024-01-15T09:06:05;98155.28;;;0.43;100.00
75136;BME280;63707;52.212;9.540;2024-01-15T09:08:30;98151.31;;;0.53;100.00
75136;BME280;63707;52.212;9.540;2024-01-15T09:10:56;98162.03;;;0.53;100.00
75136;BME280;63707;52.212;9.540;2024-01-15T09:13:23;98158.06;;;0.49;100.00
75136;BME280;63707;52.212;9.540;2024-01-15T09:15:48;98155.28;;;0.57;100.00
75136;BME280;63707;52.212;9.540;2024-01-15T09:18:14;98153.81;;;0.55;100.00
75136;BME280;63707;52.212;9.540;2024-01-15T09:20:39;98160.00;;;0.55;100.00
75136;BME280;63707;52.212;9.540;2024-01-15T09:23:05;98150.31;;;0.54;100.00
75136;BME280;63707;52.212;9.540;2024-01-15T09:25:30;98157.06;;;0.50;100.00
75136;BME280;63707;52.212;9.540;2024-01-15T09:27:56;98169.97;;;0.61;100.00
75136;BME280;63707;52.212;9.540;2024-01-15T09:30:23;98163.31;;;0.57;100.00
75136;BME280;63707;52.212;9.540;2024-01-15T09:32:49;98158.28;;;0.69;100.00
75136;BME280;63707;52.212;9.540;2024-01-15T09:35:14;98167.59;;;0.52;100.00
75136;BME280;63707;52.212;9.540;2024-01-15T09:37:40;98162.94;;;0.60;100.00
75136;BME280;63707;52.212;9.540;2024-01-15T09:40:08;98165.94;;;0.51;100.00
75136;BME280;63707;52.212;9.540;2024-01-15T09:42:38;98175.69;;;0.58;100.00
75136;BME280;63707;52.212;9.540;2024-01-15T09:45:05;98168.44;;;0.74;100.00
75136;BME280;63707;52.212;9.540;2024-01-15T09:47:32;98161.47;;;0.58;100.00
75136;BME280;63707;52.212;9.540;2024-01-15T09:49:58;98164.03;;;0.66;100.00
75136;BME280;63707;52.212;9.540;2024-01-15T09:52:24;98169.81;;;0.48;100.00
75136;BME280;63707;52.212;9.540;2024-01-15T09:54:50;98178.00;;;0.47;100.00
75136;BME280;63707;52.212;9.540;2024-01-15T09:57:16;98177.75;;;0.42;100.00
75136;BME280;63707;52.212;9.540;2024-01-15T09:59:43;98168.03;;;0.55;100.00
75136;BME280;63707;52.212;9.540;2024-01-15T10:02:09;98173.13;;;0.50;100.00
75136;BME280;63707;52.212;9.540;2024-01-15T10:04:41;98170.91;;;0.54;100.00
75136;BME280;63707;52.212;9.540;2024-01-15T10:07:08;98169.56;;;0.65;100.00
75136;BME280;63707;52.212;9.540;2024-01-15T10:09:34;98164.09;;;0.73;100.00
75136;BME280;63707;52.212;9.540;2024-01-15T10:11:59;98163.38;;;0.85;100.00
75136;BME280;63707;52.212;9.540;2024-01-15T10:14:25;98156.06;;;0.73;100.00
75136;BME280;63707;52.212;9.540;2024-01-15T10:16:50;98171.44;;;0.64;100.00
75136;BME280;63707;52.212;9.540;2024-01-15T10:19:16;98166.13;;;0.71;100.00
75136;BME280;63707;52.212;9.540;2024-01-15T10:21:43;98164.34;;;0.78;100.00
75136;BME280;63707;52.212;9.540;2024-01-15T10:24:08;98157.41;;;0.83;100.00
75136;BME280;63707;52.212;9.540;2024-01-15T10:26:34;98169.91;;;0.76;100.00
75136;BME280;63707;52.212;9.540;2024-01-15T10:28:59;98165.19;;;0.78;100.00
75136;BME280;63707;52.212;9.540;2024-01-15T10:31:25;98152.94;;;0.69;100.00
75136;BME280;63707;52.212;9.540;2024-01-15T10:33:51;98155.41;;;0.71;100.00
75136;BME280;63707;52.212;9.540;2024-01-15T10:36:17;98154.78;;;0.69;100.00
75136;BME280;63707;52.212;9.540;2024-01-15T10:38:45;98158.47;;;0.68;100.00
75136;BME280;63707;52.212;9.540;2024-01-15T10:41:11;98148.53;;;0.61;100.00
75136;BME280;63707;52.212;9.540;2024-01-15T10:43:37;98158.94;;;0.71;100.00
75136;BME280;63707;52.212;9.540;2024-01-15T10:46:02;98147.38;;;0.71;100.00
75136;BME280;63707;52.212;9.540;2024-01-15T10:48:28;98151.66;;;0.65;100.00
75136;BME280;63707;52.212;9.540;2024-01-15T10:50:56;98153.75;;;0.70;100.00
75136;BME280;63707;52.212;9.540;2024-01-15T10:53:22;98148.84;;;0.73;100.00
75136;BME280;63707;52.212;9.540;2024-01-15T10:55:50;98153.19;;;0.74;100.00
75136;BME280;63707;52.212;9.540;2024-01-15T10:58:16;98141.44;;;0.75;100.00
75136;BME280;63707;52.212;9.540;2024-01-15T11:00:43;98147.19;;;0.72;100.00
75136;BME280;63707;52.212;9.540;2024-01-15T11:03:10;98150.19;;;0.84;100.00
75136;BME280;63707;52.212;9.540;2024-01-15T11:05:37;98152.66;;;0.85;100.00
75136;BME280;63707;52.212;9.540;2024-01-15T11:08:05;98145.34;;;0.73;100.00
75136;BME280;63707;52.212;9.540;2024-01-15T11:10:41;98138.88;;;0.67;100.00
75136;BME280;63707;52.212;9.540;2024-01-15T11:13:10;98147.56;;;0.69;100.00
75136;BME280;63707;52.212;9.540;2024-01-15T11:16:00;98139.59;;;0.76;100.00
75136;BME280;63707;52.212;9.540;2024-01-15T11:18:27;98142.22;;;0.69;100.00
75136;BME280;63707;52.212;9.540;2024-01-15T11:21:21;98128.69;;;0.77;100.00
75136;BME280;63707;52.212;9.540;2024-01-15T11:23:49;98136.00;;;0.90;100.00
75136;BME280;63707;52.212;9.540;2024-01-15T11:26:29;98139.47;;;0.84;100.00
75136;BME280;63707;52.212;9.540;2024-01-15T11:28:56;98139.97;;;0.94;100.00
75136;BME280;63707;52.212;9.540;2024-01-15T11:31:26;98129.38;;;1.07;100.00
75136;BME280;63707;52.212;9.540;2024-01-15T11:33:52;98131.91;;;0.94;100.00
75136;BME280;63707;52.212;9.540;2024-01-15T11:36:17;98133.72;;;0.87;100.00
75136;BME280;63707;52.212;9.540;2024-01-15T11:38:43;98129.44;;;0.92;100.00
75136;BME280;63707;52.212;9.540;2024-01-15T11:41:13;98131.09;;;0.93;100.00
75136;BME280;63707;52.212;9.540;2024-01-15T11:43:40;98130.91;;;0.74;100.00
75136;BME280;63707;52.212;9.540;2024-01-15T11:46:11;98125.28;;;0.69;100.00
75136;BME280;63707;52.212;9.540;2024-01-15T11:48:43;98127.47;;;0.58;100.00
75136;BME280;63707;52.212;9.540;2024-01-15T11:51:11;98126.38;;;0.53;100.00
75136;BME280;63707;52.212;9.540;2024-01-15T11:53:43;98129.75;;;0.61;100.00
75136;BME280;63707;52.212;9.540;2024-01-15T11:56:14;98134.28;;;0.61;100.00
75136;BME280;63707;52.212;9.540;2024-01-15T11:58:41;98128.59;;;0.71;100.00
75136;BME280;63707;52.212;9.540;2024-01-15T12:01:09;98122.41;;;0.70;100.00
75136;BME280;63707;52.212;9.540;2024-01-15T12:03:35;98121.00;;;0.74;100.00
75136;BME280;63707;52.212;9.540;2024-01-15T12:06:01;98124.34;;;0.76;100.00
75136;BME280;63707;52.212;9.540;2024-01-15T12:08:26;98121.00;;;0.74;100.00
75136;BME280;63707;52.212;9.540;2024-01-15T12:10:52;98118.34;;;0.74;100.00
75136;BME280;63707;52.212;9.540;2024-01-15T12:13:18;98115.06;;;0.79;100.00
75136;BME280;63707;52.212;9.540;2024-01-15T12:15:46;98125.03;;;0.85;100.00
75136;BME280;63707;52.212;9.540;2024-01-15T12:18:14;98127.53;;;0.86;100.00
75136;BME280;63707;52.212;9.540;2024-01-15T12:20:40;98122.34;;;0.85;100.00
75136;BME280;63707;52.212;9.540;2024-01-15T12:23:07;98120.25;;;0.80;100.00
75136;BME280;63707;52.212;9.540;2024-01-15T12:25:33;98122.53;;;0.83;100.00
75136;BME280;63707;52.212;9.540;2024-01-15T12:28:00;98124.78;;;0.80;100.00
75136;BME280;63707;52.212;9.540;2024-01-15T12:30:26;98136.34;;;0.80;100.00
75136;BME280;63707;52.212;9.540;2024-01-15T12:32:51;98139.13;;;0.72;100.00
75136;BME280;63707;52.212;9.540;2024-01-15T12:35:18;98125.22;;;0.83;100.00
75136;BME280;63707;52.212;9.540;2024-01-15T12:37:44;98129.25;;;0.73;100.00
75136;BME280;63707;52.212;9.540;2024-01-15T12:40:13;98132.69;;;1.09;100.00
75136;BME280;63707;52.212;9.540;2024-01-15T12:42:43;98123.81;;;0.87;100.00
75136;BME280;63707;52.212;9.540;2024-01-15T12:45:10;98135.25;;;0.75;100.00
75136;BME280;63707;52.212;9.540;2024-01-15T12:47:37;98116.28;;;0.76;100.00
75136;BME280;63707;52.212;9.540;2024-01-15T12:50:06;98137.59;;;0.84;100.00
75136;BME280;63707;52.212;9.540;2024-01-15T12:52:33;98136.00;;;0.69;100.00